Time;durP1;ratioP1;P1;durP2;ratioP2;P2;SDS_P1;SDS_P2;PMS_P1;PMS_P2;Temp;Humidity;BMP_temperature;BMP_pressure;BME280_temperature;BME280_humidity;BME280_pressure;Samples;Min_cycle;Max_cycle;Signal;HPM_P1;HPM_P2
2021/11/22 00:01:48;;;;;;;7.67;3.73;;;7.80;99.90;;;;;;5020726;28;20525;-35
2021/11/22 00:04:13;;;;;;;6.03;3.33;;;7.90;99.90;;;;;;5027977;28;20500;-36
2021/11/22 00:06:39;;;;;;;7.33;3.90;;;7.70;99.90;;;;;;5023211;28;20192;-35
2021/11/22 00:09:05;;;;;;;5.23;3.23;;;7.80;99.90;;;;;;5009901;28;20237;-35
2021/11/22 00:11:32;;;;;;;8.50;4.00;;;7.80;99.90;;;;;;5009157;28;20257;-36
2021/11/22 00:13:58;;;;;;;7.23;2.87;;;7.70;99.90;;;;;;5018141;28;20426;-36
2021/11/22 00:16:24;;;;;;;6.07;3.27;;;7.70;99.90;;;;;;5022317;28;20501;-36
2021/11/22 00:18:50;;;;;;;5.40;2.63;;;7.80;99.90;;;;;;5008043;28;20533;-36
2021/11/22 00:21:16;;;;;;;6.70;3.80;;;7.90;99.90;;;;;;5014468;28;20187;-35
2021/11/22 00:23:41;;;;;;;4.90;3.03;;;7.70;99.90;;;;;;5006410;28;20484;-35
2021/11/22 00:26:07;;;;;;;6.37;2.73;;;7.70;99.90;;;;;;5009209;28;20257;-36
2021/11/22 00:28:33;;;;;;;8.23;3.00;;;7.70;99.90;;;;;;5016642;28;20274;-35
2021/11/22 00:30:58;;;;;;;7.83;2.87;;;7.60;99.90;;;;;;5025499;28;20190;-36
2021/11/22 00:33:24;;;;;;;4.27;3.20;;;7.50;99.90;;;;;;5016556;28;20191;-36
2021/11/22 00:35:50;;;;;;;5.77;3.03;;;7.70;99.90;;;;;;5009304;28;20334;-36
2021/11/22 00:38:16;;;;;;;6.87;3.53;;;7.70;99.90;;;;;;5008824;28;20191;-36
2021/11/22 00:40:43;;;;;;;8.50;3.53;;;7.70;99.90;;;;;;5009276;28;20965;-36
2021/11/22 00:43:10;;;;;;;7.73;3.47;;;7.80;99.90;;;;;;5011587;28;20932;-36
2021/11/22 00:45:36;;;;;;;6.33;2.73;;;8.00;99.90;;;;;;5022082;28;20499;-36
2021/11/22 00:48:02;;;;;;;5.40;3.10;;;7.90;99.90;;;;;;5022389;28;20429;-35
2021/11/22 00:50:30;;;;;;;4.10;3.10;;;7.70;99.90;;;;;;5013469;28;20484;-36
2021/11/22 00:52:57;;;;;;;7.73;3.27;;;7.70;99.90;;;;;;5017726;28;20442;-37
2021/11/22 00:55:23;;;;;;;5.50;2.90;;;7.50;99.90;;;;;;5009236;28;20457;-36
2021/11/22 00:57:49;;;;;;;4.17;3.63;;;7.50;99.90;;;;;;5011147;28;20452;-35
2021/11/22 01:00:18;;;;;;;6.70;3.23;;;7.80;99.90;;;;;;5019191;28;20867;-35
2021/11/22 01:02:44;;;;;;;11.40;4.20;;;7.80;99.90;;;;;;5015245;28;20809;-36
2021/11/22 01:05:10;;;;;;;5.40;4.40;;;7.60;99.90;;;;;;5007289;28;20414;-36
2021/11/22 01:07:36;;;;;;;7.97;3.97;;;7.60;99.90;;;;;;5012214;28;20432;-36
2021/11/22 01:10:04;;;;;;;5.73;4.93;;;7.50;99.90;;;;;;5006839;28;20441;-36
2021/11/22 01:12:30;;;;;;;8.30;5.10;;;7.60;99.90;;;;;;5007192;28;20430;-36
2021/11/22 01:14:58;;;;;;;9.37;5.73;;;7.50;99.90;;;;;;5021817;28;20430;-36
2021/11/22 01:17:24;;;;;;;8.40;5.00;;;7.30;99.90;;;;;;5022951;28;20455;-36
2021/11/22 01:19:53;;;;;;;9.00;6.10;;;7.50;99.90;;;;;;5010935;28;20469;-36
2021/11/22 01:22:23;;;;;;;9.80;5.57;;;7.30;99.90;;;;;;5008519;28;20441;-36
2021/11/22 01:24:49;;;;;;;12.07;6.03;;;7.50;99.90;;;;;;5007415;28;20418;-35
2021/11/22 01:27:15;;;;;;;10.93;7.80;;;7.70;99.90;;;;;;5008059;28;20509;-38
2021/11/22 01:29:41;;;;;;;9.40;6.13;;;7.50;99.90;;;;;;5012093;28;20670;-38
2021/11/22 01:32:07;;;;;;;10.90;6.53;;;7.60;99.90;;;;;;5019128;28;20191;-38
2021/11/22 01:34:34;;;;;;;10.37;6.53;;;7.60;99.90;;;;;;5009860;28;20526;-36
2021/11/22 01:37:00;;;;;;;7.43;6.50;;;7.50;99.90;;;;;;5013627;28;20524;-36
2021/11/22 01:39:25;;;;;;;9.87;7.20;;;7.40;99.90;;;;;;5010565;28;20846;-35
2021/11/22 01:41:51;;;;;;;11.37;7.17;;;7.50;99.90;;;;;;5007595;28;20422;-35
2021/11/22 01:44:17;;;;;;;8.70;6.60;;;7.20;99.90;;;;;;5011905;28;20179;-36
2021/11/22 01:46:45;;;;;;;9.80;7.90;;;7.20;99.90;;;;;;5019543;28;20423;-36
2021/11/22 01:49:11;;;;;;;9.87;7.37;;;7.30;99.90;;;;;;5021761;28;20430;-36
2021/11/22 01:51:37;;;;;;;10.20;7.50;;;7.30;99.90;;;;;;5011124;28;20479;-36
2021/11/22 01:54:02;;;;;;;7.33;6.50;;;7.10;99.90;;;;;;5009592;28;20269;-36
2021/11/22 01:56:28;;;;;;;9.03;6.40;;;7.20;99.90;;;;;;5007074;28;20512;-36
2021/11/22 01:58:54;;;;;;;8.80;7.00;;;7.30;99.90;;;;;;5014018;28;20191;-36
2021/11/22 02:01:19;;;;;;;9.17;6.97;;;7.20;99.90;;;;;;5013369;28;20174;-36
2021/11/22 02:03:45;;;;;;;10.10;7.83;;;7.20;99.90;;;;;;5012193;28;20183;-35
2021/11/22 02:06:11;;;;;;;8.70;6.90;;;7.20;99.90;;;;;;5006026;28;20559;-35
2021/11/22 02:08:37;;;;;;;14.30;8.10;;;7.20;99.90;;;;;;5009423;28;20452;-35
2021/11/22 02:11:04;;;;;;;15.57;8.07;;;7.10;99.90;;;;;;5007305;28;20691;-36
2021/11/22 02:13:30;;;;;;;12.07;7.60;;;7.20;99.90;;;;;;5007952;28;20446;-35
2021/11/22 02:15:56;;;;;;;9.90;8.00;;;7.40;99.90;;;;;;5014851;28;20418;-35
2021/11/22 02:18:22;;;;;;;9.40;7.83;;;7.50;99.90;;;;;;5017205;28;20441;-35
2021/11/22 02:20:49;;;;;;;9.60;7.70;;;7.40;99.90;;;;;;5011594;28;20462;-35
2021/11/22 02:23:15;;;;;;;11.47;8.63;;;7.50;99.90;;;;;;5021514;28;20191;-35
2021/11/22 02:25:43;;;;;;;13.93;9.20;;;7.50;99.90;;;;;;5011208;28;20928;-35
2021/11/22 02:28:10;;;;;;;12.13;7.40;;;7.40;99.90;;;;;;5011579;28;20418;-35
2021/11/22 02:30:40;;;;;;;11.17;8.40;;;7.30;99.90;;;;;;5021801;28;20423;-35
2021/11/22 02:33:13;;;;;;;10.50;8.37;;;7.40;99.90;;;;;;5015981;28;20437;-35
2021/11/22 02:35:42;;;;;;;10.10;8.83;;;7.50;99.90;;;;;;5011157;28;20952;-35
2021/11/22 02:38:08;;;;;;;12.63;8.50;;;7.30;99.90;;;;;;5017651;28;20958;-36
2021/11/22 02:40:34;;;;;;;11.23;8.53;;;7.20;99.90;;;;;;5011047;28;20465;-35
2021/11/22 02:43:00;;;;;;;12.70;8.63;;;7.20;99.90;;;;;;5010332;28;20422;-36
2021/11/22 02:45:25;;;;;;;12.57;8.27;;;7.20;99.90;;;;;;5021666;28;20174;-35
2021/11/22 02:47:52;;;;;;;13.33;8.77;;;7.20;99.90;;;;;;5024045;28;20177;-35
2021/11/22 02:50:19;;;;;;;13.47;8.77;;;7.30;99.90;;;;;;5011198;28;20187;-36
2021/11/22 02:52:47;;;;;;;11.90;8.70;;;7.20;99.90;;;;;;5012301;28;20512;-35
2021/11/22 02:55:15;;;;;;;11.03;8.20;;;7.40;99.90;;;;;;5009277;28;20446;-35
2021/11/22 02:57:41;;;;;;;13.33;8.73;;;7.40;99.90;;;;;;5010783;28;20884;-35
2021/11/22 03:00:12;;;;;;;12.07;8.67;;;7.40;99.90;;;;;;5014164;28;20603;-35
2021/11/22 03:02:38;;;;;;;13.67;7.77;;;7.30;99.90;;;;;;5027287;28;20420;-35
2021/11/22 03:05:04;;;;;;;11.10;9.10;;;7.40;99.90;;;;;;5010092;28;20421;-36
2021/11/22 03:07:30;;;;;;;10.00;7.87;;;7.60;99.90;;;;;;5014994;28;20412;-36
2021/11/22 03:09:56;;;;;;;8.50;7.43;;;7.70;99.90;;;;;;5015546;28;21214;-36
2021/11/22 03:12:22;;;;;;;10.67;7.50;;;7.50;99.90;;;;;;5010566;28;20191;-35
2021/11/22 03:14:48;;;;;;;12.43;7.80;;;7.50;99.90;;;;;;5013440;28;20590;-35
2021/11/22 03:17:14;;;;;;;9.50;7.47;;;7.40;99.90;;;;;;5024126;28;20812;-35
2021/11/22 03:19:40;;;;;;;9.97;7.50;;;7.40;99.90;;;;;;5013012;28;20547;-35
2021/11/22 03:22:06;;;;;;;8.87;7.70;;;7.40;99.90;;;;;;5010754;28;20190;-36
2021/11/22 03:24:32;;;;;;;10.90;8.20;;;7.30;99.90;;;;;;5014885;28;20271;-36
2021/11/22 03:27:00;;;;;;;9.83;7.47;;;7.40;99.90;;;;;;5009309;28;20516;-35
2021/11/22 03:29:26;;;;;;;10.60;8.87;;;7.40;99.90;;;;;;5013918;28;20432;-35
2021/11/22 03:31:52;;;;;;;14.10;8.90;;;7.30;99.90;;;;;;5020353;28;20414;-35
2021/11/22 03:34:19;;;;;;;11.53;7.80;;;7.40;99.90;;;;;;5026066;28;20475;-36
2021/11/22 03:36:45;;;;;;;10.53;8.00;;;7.40;99.90;;;;;;5009867;28;20951;-36
2021/11/22 03:39:24;;;;;;;8.33;7.30;;;7.50;99.90;;;;;;5013438;28;20457;-36
2021/11/22 03:41:51;;;;;;;11.57;8.23;;;7.30;99.90;;;;;;5009990;28;20206;-36
2021/11/22 03:44:17;;;;;;;10.13;8.50;;;7.20;99.90;;;;;;5014110;28;20432;-36
2021/11/22 03:46:49;;;;;;;9.93;8.50;;;7.30;99.90;;;;;;5025852;28;20567;-35
2021/11/22 03:49:15;;;;;;;9.40;7.80;;;7.20;99.90;;;;;;5015724;28;20430;-35
2021/11/22 03:51:42;;;;;;;10.90;7.67;;;7.30;99.90;;;;;;5009683;28;20423;-36
2021/11/22 03:54:08;;;;;;;8.47;7.50;;;7.50;99.90;;;;;;5020940;28;20475;-35
2021/11/22 03:56:34;;;;;;;8.43;7.13;;;7.40;99.90;;;;;;5009707;28;20476;-36
2021/11/22 03:58:59;;;;;;;9.07;7.43;;;7.40;99.90;;;;;;5009005;28;21341;-36
2021/11/22 04:01:25;;;;;;;9.00;7.67;;;7.40;99.90;;;;;;5014364;28;20179;-35
2021/11/22 04:03:51;;;;;;;8.30;6.60;;;7.40;99.90;;;;;;5018840;28;20277;-36
2021/11/22 04:06:17;;;;;;;8.27;7.37;;;7.30;99.90;;;;;;5008133;28;20991;-36
2021/11/22 04:08:43;;;;;;;8.20;7.37;;;7.70;99.90;;;;;;5017123;28;20233;-36
2021/11/22 04:11:10;;;;;;;9.03;7.40;;;7.60;99.90;;;;;;5008496;28;20426;-36
2021/11/22 04:13:36;;;;;;;7.93;7.13;;;7.50;99.90;;;;;;5008843;28;20769;-36
2021/11/22 04:16:02;;;;;;;7.00;6.30;;;7.60;99.90;;;;;;5018617;28;20476;-36
2021/11/22 04:18:28;;;;;;;8.20;7.30;;;7.40;99.90;;;;;;5022382;28;20187;-36
2021/11/22 04:20:54;;;;;;;9.00;7.57;;;7.40;99.90;;;;;;5018356;28;20462;-36
2021/11/22 04:23:20;;;;;;;8.43;7.40;;;7.50;99.90;;;;;;5012509;28;20430;-35
2021/11/22 04:25:46;;;;;;;7.47;6.47;;;7.40;99.90;;;;;;5009641;28;20261;-36
2021/11/22 04:28:11;;;;;;;10.43;7.93;;;7.40;99.90;;;;;;5008951;28;20262;-36
2021/11/22 04:30:39;;;;;;;9.40;7.20;;;7.40;99.90;;;;;;5013871;28;20234;-35
2021/11/22 04:33:05;;;;;;;8.00;7.20;;;7.30;99.90;;;;;;5025146;28;20450;-35
2021/11/22 04:35:31;;;;;;;8.33;7.47;;;7.50;99.90;;;;;;5009739;28;20422;-35
2021/11/22 04:37:57;;;;;;;8.53;7.60;;;7.20;99.90;;;;;;5012572;28;20449;-35
2021/11/22 04:40:23;;;;;;;10.10;6.60;;;7.30;99.90;;;;;;5017687;28;20899;-35
2021/11/22 04:42:49;;;;;;;7.37;6.60;;;7.30;99.90;;;;;;5008196;28;20529;-35
2021/11/22 04:45:25;;;;;;;8.00;7.20;;;7.50;99.90;;;;;;5017840;28;20566;-35
2021/11/22 04:47:51;;;;;;;8.30;7.50;;;7.40;99.90;;;;;;5021148;28;20449;-35
2021/11/22 04:50:18;;;;;;;8.10;7.30;;;7.20;99.90;;;;;;5012216;28;20458;-35
2021/11/22 04:52:46;;;;;;;11.63;7.50;;;7.20;99.90;;;;;;5009189;28;21001;-36
2021/11/22 04:55:14;;;;;;;7.20;6.50;;;7.30;99.90;;;;;;5015442;28;20450;-35
2021/11/22 04:57:40;;;;;;;7.57;6.70;;;7.20;99.90;;;;;;5008498;28;20452;-36
2021/11/22 05:00:06;;;;;;;8.33;7.20;;;7.10;99.90;;;;;;5002398;28;21017;-35
2021/11/22 05:02:32;;;;;;;8.00;7.20;;;7.00;99.90;;;;;;5019439;28;20414;-35
2021/11/22 05:04:58;;;;;;;10.43;6.80;;;7.00;99.90;;;;;;5014543;28;20507;-36
2021/11/22 05:07:24;;;;;;;7.50;6.40;;;7.00;99.90;;;;;;5006790;28;20191;-35
2021/11/22 05:09:49;;;;;;;6.67;5.90;;;7.00;99.90;;;;;;5012771;28;20192;-35
2021/11/22 05:12:16;;;;;;;7.23;6.53;;;6.70;99.90;;;;;;5008139;28;20425;-36
2021/11/22 05:14:42;;;;;;;7.10;6.40;;;6.70;99.90;;;;;;5010047;28;20221;-35
2021/11/22 05:17:08;;;;;;;7.60;6.90;;;6.60;99.90;;;;;;5019959;28;20421;-35
2021/11/22 05:19:34;;;;;;;8.03;7.20;;;6.40;99.90;;;;;;5023256;28;20869;-35
2021/11/22 05:22:00;;;;;;;7.10;6.40;;;6.80;99.90;;;;;;5008409;28;20193;-37
2021/11/22 05:24:30;;;;;;;7.47;6.77;;;6.70;99.90;;;;;;5007693;28;20199;-36
2021/11/22 05:26:57;;;;;;;7.33;6.60;;;6.70;99.90;;;;;;5007579;28;20418;-36
2021/11/22 05:29:23;;;;;;;8.40;7.60;;;6.50;99.90;;;;;;5007566;28;20427;-35
2021/11/22 05:31:49;;;;;;;8.80;7.37;;;6.60;99.90;;;;;;5014089;28;20430;-35
2021/11/22 05:34:18;;;;;;;8.10;7.30;;;6.60;99.90;;;;;;5019895;28;20425;-36
2021/11/22 05:36:46;;;;;;;8.53;7.70;;;6.60;99.90;;;;;;5007559;28;20424;-35
2021/11/22 05:39:12;;;;;;;9.90;8.80;;;6.70;99.90;;;;;;5016949;28;20683;-35
2021/11/22 05:41:38;;;;;;;14.03;9.30;;;6.90;99.90;;;;;;5007277;28;20845;-35
2021/11/22 05:44:04;;;;;;;10.43;8.70;;;6.80;99.90;;;;;;5018708;28;20433;-35
2021/11/22 05:46:30;;;;;;;10.20;8.93;;;6.80;99.90;;;;;;5018018;28;20517;-35
2021/11/22 05:48:56;;;;;;;11.60;10.40;;;6.90;99.90;;;;;;5023358;28;20186;-35
2021/11/22 05:51:22;;;;;;;13.77;11.07;;;6.90;99.90;;;;;;5007070;28;20198;-35
2021/11/22 05:53:49;;;;;;;11.40;9.57;;;6.90;99.90;;;;;;5011436;28;20197;-35
2021/11/22 05:56:18;;;;;;;12.77;9.93;;;7.00;99.90;;;;;;5006949;28;20812;-35
2021/11/22 05:58:45;;;;;;;13.10;10.10;;;7.00;99.90;;;;;;5007586;28;20506;-35
2021/11/22 06:01:12;;;;;;;11.83;9.83;;;6.90;99.90;;;;;;5018073;28;20480;-37
2021/11/22 06:03:37;;;;;;;12.13;10.83;;;7.00;99.90;;;;;;5022143;28;20433;-37
2021/11/22 06:06:03;;;;;;;13.70;11.40;;;6.80;99.90;;;;;;5014846;28;20430;-38
2021/11/22 06:08:29;;;;;;;13.73;12.20;;;6.80;99.90;;;;;;5007883;28;20186;-38
2021/11/22 06:10:55;;;;;;;16.83;14.07;;;6.80;99.90;;;;;;5007486;28;20207;-38
2021/11/22 06:13:22;;;;;;;16.30;13.10;;;6.80;99.90;;;;;;5005354;28;20225;-35
2021/11/22 06:15:48;;;;;;;18.73;13.00;;;6.80;99.90;;;;;;5006443;28;20437;-35
2021/11/22 06:18:15;;;;;;;15.10;13.03;;;6.90;99.90;;;;;;5019746;28;20457;-38
2021/11/22 06:20:41;;;;;;;14.70;12.40;;;6.80;99.90;;;;;;5012596;28;20472;-37
2021/11/22 06:23:07;;;;;;;15.27;13.03;;;6.80;99.90;;;;;;5009018;28;20494;-37
2021/11/22 06:25:34;;;;;;;18.27;14.23;;;6.60;99.90;;;;;;5023263;28;20432;-37
2021/11/22 06:28:01;;;;;;;15.70;12.90;;;6.60;99.90;;;;;;5030493;28;20429;-37
2021/11/22 06:30:27;;;;;;;21.10;14.83;;;6.50;99.90;;;;;;5007648;28;20445;-37
2021/11/22 06:32:53;;;;;;;18.30;14.30;;;6.90;99.90;;;;;;5008498;28;20430;-37
2021/11/22 06:35:21;;;;;;;19.47;15.20;;;6.60;99.90;;;;;;5015525;28;20194;-37
2021/11/22 06:37:47;;;;;;;17.77;13.70;;;6.50;99.90;;;;;;5006972;28;20426;-37
2021/11/22 06:40:13;;;;;;;19.87;15.87;;;6.50;99.90;;;;;;5013902;28;20506;-37
2021/11/22 06:42:39;;;;;;;20.47;15.73;;;6.30;99.90;;;;;;5007265;28;20425;-37
2021/11/22 06:45:06;;;;;;;18.97;15.77;;;6.30;99.90;;;;;;5013076;28;20806;-37
2021/11/22 06:47:33;;;;;;;19.37;15.20;;;6.40;99.90;;;;;;5011086;28;20205;-37
2021/11/22 06:49:59;;;;;;;17.80;14.40;;;6.40;99.90;;;;;;5018220;28;20436;-37
2021/11/22 06:52:25;;;;;;;20.20;16.10;;;6.50;99.90;;;;;;5006750;28;20492;-37
2021/11/22 06:54:53;;;;;;;17.10;14.30;;;6.50;99.90;;;;;;5008693;28;20441;-37
2021/11/22 06:57:19;;;;;;;19.80;14.70;;;6.60;99.90;;;;;;5006980;28;20818;-37
2021/11/22 06:59:45;;;;;;;19.07;14.17;;;6.40;99.90;;;;;;5006861;28;20500;-37
2021/11/22 07:02:16;;;;;;;17.83;15.10;;;6.40;99.90;;;;;;5012791;28;20440;-37
2021/11/22 07:04:43;;;;;;;17.80;13.77;;;6.30;99.90;;;;;;5016530;28;20881;-37
2021/11/22 07:07:09;;;;;;;16.73;13.40;;;6.50;99.90;;;;;;5008808;28;20422;-37
2021/11/22 07:09:35;;;;;;;15.53;13.37;;;6.30;99.90;;;;;;5021161;28;20456;-37
2021/11/22 07:12:02;;;;;;;17.30;13.30;;;6.50;99.90;;;;;;5020274;28;20512;-37
2021/11/22 07:14:27;;;;;;;20.87;15.00;;;6.60;99.90;;;;;;5009892;28;20822;-39
2021/11/22 07:16:53;;;;;;;18.23;14.20;;;6.50;99.90;;;;;;5020892;28;20453;-37
2021/11/22 07:19:20;;;;;;;17.43;14.13;;;6.30;99.90;;;;;;5032440;28;20224;-37
2021/11/22 07:21:46;;;;;;;17.83;12.93;;;6.50;99.90;;;;;;5036006;28;20224;-37
2021/11/22 07:24:12;;;;;;;16.40;12.50;;;6.30;99.90;;;;;;5037506;28;20457;-37
2021/11/22 07:26:38;;;;;;;18.73;13.83;;;6.20;99.90;;;;;;5035722;28;20416;-37
2021/11/22 07:29:04;;;;;;;18.10;13.93;;;6.30;99.90;;;;;;5036236;28;20420;-37
2021/11/22 07:31:30;;;;;;;15.83;13.20;;;6.20;99.90;;;;;;5028787;28;20186;-37
2021/11/22 07:33:56;;;;;;;15.20;12.20;;;6.30;99.90;;;;;;5027553;28;20432;-37
2021/11/22 07:36:22;;;;;;;14.90;12.30;;;6.30;99.90;;;;;;5033907;28;20420;-37
2021/11/22 07:38:48;;;;;;;14.80;12.57;;;6.40;99.90;;;;;;5037300;28;20430;-37
2021/11/22 07:41:13;;;;;;;14.80;12.17;;;6.10;99.90;;;;;;5038882;28;20255;-37
2021/11/22 07:43:39;;;;;;;16.83;13.20;;;6.30;99.90;;;;;;5037109;28;20193;-37
2021/11/22 07:46:05;;;;;;;17.80;13.30;;;6.40;99.90;;;;;;5026340;28;20438;-37
2021/11/22 07:48:31;;;;;;;14.80;12.07;;;6.50;99.90;;;;;;5017094;28;20417;-37
2021/11/22 07:50:58;;;;;;;17.70;12.90;;;6.40;99.90;;;;;;5035876;28;20611;-37
2021/11/22 07:53:24;;;;;;;13.60;11.70;;;6.50;99.90;;;;;;5034639;28;20205;-38
2021/11/22 07:55:50;;;;;;;13.77;11.57;;;6.40;99.90;;;;;;5035397;28;20476;-38
2021/11/22 07:58:15;;;;;;;14.10;11.30;;;6.60;99.90;;;;;;5031025;28;20432;-37
2021/11/22 08:00:41;;;;;;;13.43;12.03;;;6.60;99.90;;;;;;5041587;28;20217;-37
2021/11/22 08:03:07;;;;;;;14.30;12.53;;;6.40;99.90;;;;;;5025004;28;20574;-37
2021/11/22 08:05:33;;;;;;;14.27;11.33;;;6.40;99.90;;;;;;5043219;28;20198;-38
2021/11/22 08:07:59;;;;;;;12.53;11.20;;;6.60;99.90;;;;;;5023560;28;20676;-38
2021/11/22 08:12:56;;;;;;;13.43;11.80;;;6.70;99.90;;;;;;5008353;28;20788;-38
2021/11/22 08:15:22;;;;;;;15.60;12.17;;;6.50;99.90;;;;;;5009151;28;20430;-38
2021/11/22 08:17:49;;;;;;;12.80;11.20;;;6.50;99.90;;;;;;5021496;28;20501;-37
2021/11/22 08:20:17;;;;;;;16.47;13.37;;;6.40;99.90;;;;;;5021460;28;20947;-37
2021/11/22 08:22:44;;;;;;;17.97;14.20;;;6.30;99.90;;;;;;5015245;28;20898;-38
2021/11/22 08:25:11;;;;;;;16.67;13.07;;;6.20;99.90;;;;;;5008737;28;20779;-37
2021/11/22 08:27:38;;;;;;;13.97;11.60;;;6.20;99.90;;;;;;5009032;28;20433;-37
2021/11/22 08:30:06;;;;;;;14.50;12.03;;;6.20;99.90;;;;;;5009259;28;20430;-38
2021/11/22 08:32:33;;;;;;;14.13;12.23;;;6.20;99.90;;;;;;5024022;28;20974;-37
2021/11/22 08:34:58;;;;;;;13.53;11.63;;;6.20;99.90;;;;;;5021759;28;20430;-37
2021/11/22 08:37:24;;;;;;;14.67;11.83;;;6.10;99.90;;;;;;5015005;28;20433;-37
2021/11/22 08:39:50;;;;;;;15.00;11.67;;;6.20;99.90;;;;;;5009345;28;20231;-37
2021/11/22 08:42:15;;;;;;;16.80;13.77;;;6.10;99.90;;;;;;5009328;28;20194;-37
2021/11/22 08:44:41;;;;;;;16.60;14.10;;;6.00;99.90;;;;;;5015107;28;20187;-37
2021/11/22 08:47:07;;;;;;;18.53;14.37;;;6.30;99.90;;;;;;5019077;28;20186;-38
2021/11/22 08:49:33;;;;;;;16.73;13.40;;;5.90;99.90;;;;;;5024489;28;20782;-38
2021/11/22 08:52:00;;;;;;;18.10;14.17;;;6.10;99.90;;;;;;5011642;28;20233;-37
2021/11/22 08:54:26;;;;;;;16.90;13.93;;;6.10;99.90;;;;;;5011535;28;20491;-37
2021/11/22 08:56:52;;;;;;;15.70;14.00;;;6.20;99.90;;;;;;5015161;28;20477;-37
2021/11/22 08:59:18;;;;;;;17.00;14.57;;;6.30;99.90;;;;;;5008232;28;20450;-37
2021/11/22 09:01:45;;;;;;;17.57;14.77;;;6.20;99.90;;;;;;5009793;28;20430;-37
2021/11/22 09:04:11;;;;;;;16.53;13.80;;;6.30;99.90;;;;;;5015948;28;20532;-38
2021/11/22 09:06:37;;;;;;;17.40;13.50;;;6.30;99.90;;;;;;5012576;28;20414;-37
2021/11/22 09:09:05;;;;;;;18.60;14.70;;;6.50;99.90;;;;;;5008509;28;20415;-38
2021/11/22 09:11:31;;;;;;;20.73;14.03;;;6.20;99.90;;;;;;5014495;28;20322;-38
2021/11/22 09:13:57;;;;;;;17.73;14.00;;;6.40;99.90;;;;;;5007755;28;20461;-38
2021/11/22 09:16:27;;;;;;;15.83;12.83;;;6.40;99.90;;;;;;5008079;28;20504;-38
2021/11/22 09:19:01;;;;;;;19.20;14.30;;;6.40;99.90;;;;;;5017896;28;20179;-37
2021/11/22 09:21:27;;;;;;;16.63;13.10;;;6.30;99.90;;;;;;5023268;28;20429;-37
2021/11/22 09:23:54;;;;;;;16.87;13.53;;;6.50;99.90;;;;;;5007716;28;20961;-37
2021/11/22 09:26:20;;;;;;;15.70;13.40;;;6.40;99.90;;;;;;5009092;28;20202;-37
2021/11/22 09:28:46;;;;;;;15.80;13.70;;;6.40;99.90;;;;;;5007904;28;20415;-37
2021/11/22 09:31:13;;;;;;;21.27;13.33;;;6.50;99.90;;;;;;5008011;28;20691;-37
2021/11/22 09:33:39;;;;;;;15.97;12.97;;;6.40;99.90;;;;;;5009931;28;20416;-37
2021/11/22 09:36:05;;;;;;;15.40;12.93;;;6.60;99.90;;;;;;5013427;28;20430;-37
2021/11/22 09:38:30;;;;;;;14.73;12.57;;;6.30;99.90;;;;;;5008103;28;20230;-37
2021/11/22 09:40:57;;;;;;;16.80;13.20;;;6.30;99.90;;;;;;5018198;28;20214;-37
2021/11/22 09:43:24;;;;;;;15.67;12.80;;;6.60;99.90;;;;;;5007153;28;20910;-38
2021/11/22 09:45:51;;;;;;;17.00;13.10;;;6.40;99.90;;;;;;5023855;28;20787;-38
2021/11/22 09:48:17;;;;;;;16.07;12.93;;;6.30;99.90;;;;;;5022978;28;20847;-37
2021/11/22 09:50:43;;;;;;;16.27;13.97;;;6.60;99.90;;;;;;5019102;28;20414;-37
2021/11/22 09:53:10;;;;;;;18.30;14.20;;;6.60;99.90;;;;;;5007074;28;20191;-38
2021/11/22 09:55:37;;;;;;;14.80;12.20;;;6.70;99.90;;;;;;5013804;28;20437;-37
2021/11/22 09:58:09;;;;;;;16.97;13.80;;;6.60;99.90;;;;;;5007255;28;20531;-37
2021/11/22 10:00:48;;;;;;;17.33;14.00;;;6.70;99.90;;;;;;5006252;28;20883;-37
2021/11/22 10:03:17;;;;;;;17.40;13.63;;;6.80;99.90;;;;;;5017917;28;20440;-38
2021/11/22 10:05:44;;;;;;;17.17;12.90;;;6.80;99.90;;;;;;5020519;28;20413;-37
2021/11/22 10:08:22;;;;;;;16.50;12.93;;;6.90;99.90;;;;;;5012930;28;20427;-37
2021/11/22 10:10:54;;;;;;;16.67;13.80;;;6.90;99.90;;;;;;5008008;28;20414;-37
2021/11/22 10:13:26;;;;;;;16.33;12.73;;;7.00;99.90;;;;;;5007001;28;20952;-38
2021/11/22 10:15:55;;;;;;;12.90;11.53;;;7.00;99.90;;;;;;5007447;28;20414;-37
2021/11/22 10:18:30;;;;;;;15.13;12.10;;;7.20;99.90;;;;;;5014239;28;20418;-37
2021/11/22 10:21:06;;;;;;;12.37;10.50;;;7.40;99.90;;;;;;5021447;28;20468;-38
2021/11/22 10:23:32;;;;;;;14.57;11.83;;;7.40;99.90;;;;;;5006407;28;20530;-37
2021/11/22 10:25:59;;;;;;;13.87;12.17;;;7.50;99.90;;;;;;5017860;28;20417;-37
2021/11/22 10:28:31;;;;;;;15.93;11.50;;;7.60;99.90;;;;;;5008265;28;21008;-37
2021/11/22 10:31:00;;;;;;;12.90;10.90;;;7.50;99.90;;;;;;5007267;28;20434;-37
2021/11/22 10:33:34;;;;;;;14.40;11.50;;;7.50;99.90;;;;;;5015062;28;20995;-37
2021/11/22 10:36:04;;;;;;;13.80;12.30;;;7.60;99.90;;;;;;5017713;28;20468;-37
2021/11/22 10:38:36;;;;;;;12.63;11.20;;;7.60;99.90;;;;;;5011167;28;20418;-37
2021/11/22 10:41:15;;;;;;;14.97;11.57;;;7.50;99.90;;;;;;5018320;28;20473;-38
2021/11/22 10:43:42;;;;;;;12.60;10.87;;;7.70;99.90;;;;;;5010627;28;21004;-37
2021/11/22 10:46:10;;;;;;;13.30;10.90;;;7.70;99.90;;;;;;5029888;28;20795;-37
2021/11/22 10:48:37;;;;;;;11.50;10.30;;;7.70;99.90;;;;;;5024230;28;20523;-38
2021/11/22 10:51:15;;;;;;;13.07;10.60;;;7.70;99.90;;;;;;5027315;28;20420;-37
2021/11/22 10:54:04;;;;;;;13.30;11.00;;;8.00;99.90;;;;;;5015767;28;20915;-37
2021/11/22 10:56:37;;;;;;;11.97;10.60;;;8.00;99.90;;;;;;5013294;28;20438;-38
2021/11/22 10:59:05;;;;;;;14.50;11.00;;;8.00;99.90;;;;;;5010792;28;20460;-37
2021/11/22 11:01:49;;;;;;;16.73;13.50;;;8.20;99.90;;;;;;5010430;28;20548;-38
2021/11/22 11:04:18;;;;;;;14.37;11.80;;;8.10;99.90;;;;;;5019194;28;20417;-37
2021/11/22 11:07:02;;;;;;;12.03;10.70;;;8.10;99.90;;;;;;5020509;28;20483;-38
2021/11/22 11:09:35;;;;;;;10.47;9.00;;;8.30;99.90;;;;;;5010658;28;20414;-37
2021/11/22 11:12:13;;;;;;;10.23;9.23;;;8.00;99.90;;;;;;5021476;28;20476;-37
2021/11/22 11:15:01;;;;;;;9.27;8.37;;;7.80;99.90;;;;;;5009620;28;20460;-37
2021/11/22 11:17:35;;;;;;;10.07;9.07;;;7.90;99.90;;;;;;5014695;28;20444;-37
2021/11/22 11:20:15;;;;;;;11.30;8.80;;;7.70;99.90;;;;;;5032010;28;21060;-37
2021/11/22 11:22:42;;;;;;;11.03;8.83;;;8.00;99.90;;;;;;5036329;28;20420;-38
2021/11/22 11:25:09;;;;;;;11.93;8.93;;;8.10;99.90;;;;;;5024582;28;20451;-37
2021/11/22 11:27:39;;;;;;;11.03;9.23;;;8.00;99.90;;;;;;5036225;28;20559;-37
2021/11/22 11:30:07;;;;;;;11.97;9.60;;;8.00;99.90;;;;;;5026605;28;20418;-37
2021/11/22 11:32:32;;;;;;;9.27;7.50;;;8.50;99.90;;;;;;5009600;28;20543;-37
2021/11/22 11:35:00;;;;;;;9.00;8.10;;;8.40;99.90;;;;;;5011492;28;20963;-37
2021/11/22 11:37:50;;;;;;;7.70;6.90;;;8.60;99.90;;;;;;5017741;28;20541;-37
2021/11/22 11:40:43;;;;;;;8.00;7.20;;;8.70;99.90;;;;;;5010191;28;20485;-37
2021/11/22 11:43:24;;;;;;;7.63;6.70;;;9.00;99.90;;;;;;5015613;28;20440;-38
2021/11/22 11:46:29;;;;;;;7.47;6.63;;;9.40;99.90;;;;;;5029597;28;20424;-38
2021/11/22 11:49:07;;;;;;;7.63;6.83;;;9.50;99.90;;;;;;5017312;28;20433;-38
2021/11/22 11:51:39;;;;;;;8.57;6.80;;;9.70;99.90;;;;;;5017004;28;20425;-38
2021/11/22 11:54:15;;;;;;;7.30;5.43;;;10.20;99.90;;;;;;5009158;28;20811;-38
2021/11/22 11:56:51;;;;;;;5.63;5.13;;;10.40;99.90;;;;;;5020084;28;20840;-38
2021/11/22 11:59:41;;;;;;;10.03;5.87;;;10.60;99.90;;;;;;5009825;28;20422;-38
2021/11/22 12:02:14;;;;;;;4.60;4.20;;;10.70;99.90;;;;;;5010441;28;20422;-38
2021/11/22 12:04:47;;;;;;;6.63;5.20;;;10.90;99.90;;;;;;5017240;28;20774;-38
2021/11/22 12:07:37;;;;;;;5.23;4.73;;;10.90;99.90;;;;;;5011618;28;20449;-38
2021/11/22 12:10:08;;;;;;;4.70;4.30;;;11.10;99.90;;;;;;5009818;28;20438;-37
2021/11/22 12:12:38;;;;;;;4.20;3.80;;;10.70;99.90;;;;;;5016708;28;20430;-38
2021/11/22 12:15:20;;;;;;;9.23;4.03;;;10.50;99.90;;;;;;5009043;28;20468;-37
2021/11/22 12:17:45;;;;;;;5.30;4.23;;;10.20;99.90;;;;;;5014620;28;20464;-38
2021/11/22 12:20:26;;;;;;;5.37;4.87;;;10.10;99.90;;;;;;5021639;28;21094;-37
2021/11/22 12:23:06;;;;;;;5.03;4.40;;;9.90;99.90;;;;;;5025520;28;20672;-37
2021/11/22 12:25:44;;;;;;;5.13;4.63;;;9.50;99.90;;;;;;5007943;28;20537;-38
2021/11/22 12:28:18;;;;;;;6.00;4.37;;;9.50;99.90;;;;;;5010422;28;20425;-38
2021/11/22 12:30:49;;;;;;;7.33;4.47;;;9.10;99.90;;;;;;5009016;28;20435;-37
2021/11/22 12:33:21;;;;;;;4.10;3.70;;;9.00;99.90;;;;;;5014818;28;20565;-38
2021/11/22 12:35:48;;;;;;;5.93;4.80;;;8.80;99.90;;;;;;5023376;28;20437;-37
2021/11/22 12:38:31;;;;;;;4.50;4.10;;;9.00;99.90;;;;;;5011299;28;20444;-37
2021/11/22 12:41:01;;;;;;;5.30;4.03;;;8.80;99.90;;;;;;5011653;28;21063;-38
2021/11/22 12:43:43;;;;;;;4.43;3.87;;;8.50;99.90;;;;;;5017737;28;20450;-38
2021/11/22 12:46:12;;;;;;;4.23;3.90;;;8.50;99.90;;;;;;5027811;28;20417;-37
2021/11/22 12:48:39;;;;;;;4.73;3.63;;;8.60;99.90;;;;;;5023431;28;20446;-37
2021/11/22 12:51:11;;;;;;;3.80;3.30;;;8.50;99.90;;;;;;5020778;28;20426;-38
2021/11/22 12:53:41;;;;;;;3.40;2.80;;;8.40;99.90;;;;;;5010100;28;20770;-37